sensor_id;sensor_type;location;lat;lon;timestamp;temperature;humidity
843;DHT22;407;48.884;9.126;2022-10-31T00:01:58;12.90;1.00
843;DHT22;407;48.884;9.126;2022-10-31T00:04:24;12.90;1.00
843;DHT22;407;48.884;9.126;2022-10-31T00:06:49;12.90;1.00
843;DHT22;407;48.884;9.126;2022-10-31T00:09:15;13.00;1.00
843;DHT22;407;48.884;9.126;2022-10-31T00:11:40;13.00;1.00
843;DHT22;407;48.884;9.126;2022-10-31T00:14:06;12.90;1.00
843;DHT22;407;48.884;9.126;2022-10-31T00:16:32;12.90;1.00
843;DHT22;407;48.884;9.126;2022-10-31T00:19:00;12.80;1.00
843;DHT22;407;48.884;9.126;2022-10-31T00:21:27;12.80;1.00
843;DHT22;407;48.884;9.126;2022-10-31T00:23:53;12.70;1.00
843;DHT22;407;48.884;9.126;2022-10-31T00:26:19;12.70;1.00
843;DHT22;407;48.884;9.126;2022-10-31T00:28:45;12.60;1.00
843;DHT22;407;48.884;9.126;2022-10-31T00:31:12;12.50;1.00
843;DHT22;407;48.884;9.126;2022-10-31T00:33:39;12.40;1.00
843;DHT22;407;48.884;9.126;2022-10-31T00:36:05;12.50;1.00
843;DHT22;407;48.884;9.126;2022-10-31T00:38:31;12.50;1.00
843;DHT22;407;48.884;9.126;2022-10-31T00:40:57;12.50;1.00
843;DHT22;407;48.884;9.126;2022-10-31T00:43:23;12.50;1.00
843;DHT22;407;48.884;9.126;2022-10-31T00:45:49;12.40;1.00
843;DHT22;407;48.884;9.126;2022-10-31T00:48:14;12.40;1.00
843;DHT22;407;48.884;9.126;2022-10-31T00:50:40;12.40;1.00
843;DHT22;407;48.884;9.126;2022-10-31T00:53:06;12.40;1.00
843;DHT22;407;48.884;9.126;2022-10-31T00:55:32;12.40;1.00
843;DHT22;407;48.884;9.126;2022-10-31T00:57:57;12.50;1.00
843;DHT22;407;48.884;9.126;2022-10-31T01:00:23;12.50;1.00
843;DHT22;407;48.884;9.126;2022-10-31T01:02:49;12.40;1.00
843;DHT22;407;48.884;9.126;2022-10-31T01:05:14;12.40;1.00
843;DHT22;407;48.884;9.126;2022-10-31T01:07:41;12.50;1.00
843;DHT22;407;48.884;9.126;2022-10-31T01:10:08;12.50;1.00
843;DHT22;407;48.884;9.126;2022-10-31T01:12:42;12.60;1.00
843;DHT22;407;48.884;9.126;2022-10-31T01:15:09;12.70;1.00
843;DHT22;407;48.884;9.126;2022-10-31T01:17:35;12.70;1.00
843;DHT22;407;48.884;9.126;2022-10-31T01:20:00;12.70;1.00
843;DHT22;407;48.884;9.126;2022-10-31T01:22:26;12.70;1.00
843;DHT22;407;48.884;9.126;2022-10-31T01:24:52;12.70;1.00
843;DHT22;407;48.884;9.126;2022-10-31T01:27:17;12.60;1.00
843;DHT22;407;48.884;9.126;2022-10-31T01:29:43;12.50;1.00
843;DHT22;407;48.884;9.126;2022-10-31T01:32:08;12.50;1.00
843;DHT22;407;48.884;9.126;2022-10-31T01:34:34;12.40;1.00
843;DHT22;407;48.884;9.126;2022-10-31T01:36:59;12.50;1.00
843;DHT22;407;48.884;9.126;2022-10-31T01:39:25;12.60;1.00
843;DHT22;407;48.884;9.126;2022-10-31T01:41:53;12.60;1.00
843;DHT22;407;48.884;9.126;2022-10-31T01:46:48;12.60;1.00
843;DHT22;407;48.884;9.126;2022-10-31T01:49:45;12.60;1.00
843;DHT22;407;48.884;9.126;2022-10-31T01:54:56;12.60;1.00
843;DHT22;407;48.884;9.126;2022-10-31T01:57:23;12.60;1.00
843;DHT22;407;48.884;9.126;2022-10-31T01:59:55;12.60;1.00
843;DHT22;407;48.884;9.126;2022-10-31T02:02:22;12.60;1.00
843;DHT22;407;48.884;9.126;2022-10-31T02:04:49;12.60;1.00
843;DHT22;407;48.884;9.126;2022-10-31T02:07:18;12.60;1.00
843;DHT22;407;48.884;9.126;2022-10-31T02:09:47;12.50;17.70
843;DHT22;407;48.884;9.126;2022-10-31T02:12:15;12.50;29.90
843;DHT22;407;48.884;9.126;2022-10-31T02:14:42;12.50;1.00
843;DHT22;407;48.884;9.126;2022-10-31T02:17:08;12.40;1.00
843;DHT22;407;48.884;9.126;2022-10-31T02:19:58;12.20;1.00
843;DHT22;407;48.884;9.126;2022-10-31T02:25:51;12.10;1.00
843;DHT22;407;48.884;9.126;2022-10-31T02:34:01;12.00;1.00
843;DHT22;407;48.884;9.126;2022-10-31T02:36:50;12.00;1.00
843;DHT22;407;48.884;9.126;2022-10-31T02:39:28;12.10;1.00
843;DHT22;407;48.884;9.126;2022-10-31T02:42:17;12.20;1.00
843;DHT22;407;48.884;9.126;2022-10-31T02:45:06;12.20;1.00
843;DHT22;407;48.884;9.126;2022-10-31T02:47:41;12.20;1.00
843;DHT22;407;48.884;9.126;2022-10-31T02:50:18;12.10;1.00
843;DHT22;407;48.884;9.126;2022-10-31T02:52:49;12.00;1.00
843;DHT22;407;48.884;9.126;2022-10-31T02:57:59;12.00;1.00
843;DHT22;407;48.884;9.126;2022-10-31T03:00:25;12.10;1.00
843;DHT22;407;48.884;9.126;2022-10-31T03:06:20;12.10;1.00
843;DHT22;407;48.884;9.126;2022-10-31T03:09:05;12.00;1.00
843;DHT22;407;48.884;9.126;2022-10-31T03:11:59;11.90;1.00
843;DHT22;407;48.884;9.126;2022-10-31T03:14:45;11.80;1.00
843;DHT22;407;48.884;9.126;2022-10-31T03:17:27;11.70;1.00
843;DHT22;407;48.884;9.126;2022-10-31T03:19:58;11.80;1.00
843;DHT22;407;48.884;9.126;2022-10-31T03:22:28;11.80;1.00
843;DHT22;407;48.884;9.126;2022-10-31T03:24:56;11.80;1.00
843;DHT22;407;48.884;9.126;2022-10-31T03:27:25;11.80;1.00
843;DHT22;407;48.884;9.126;2022-10-31T03:29:56;11.70;1.00
843;DHT22;407;48.884;9.126;2022-10-31T03:32:27;11.60;1.00
843;DHT22;407;48.884;9.126;2022-10-31T03:34:57;11.50;1.00
843;DHT22;407;48.884;9.126;2022-10-31T03:37:26;11.50;1.00
843;DHT22;407;48.884;9.126;2022-10-31T03:39:54;11.50;1.00
843;DHT22;407;48.884;9.126;2022-10-31T03:42:24;11.50;1.00
843;DHT22;407;48.884;9.126;2022-10-31T03:44:55;11.70;1.00
843;DHT22;407;48.884;9.126;2022-10-31T03:47:23;11.60;1.00
843;DHT22;407;48.884;9.126;2022-10-31T03:49:49;11.70;1.00
843;DHT22;407;48.884;9.126;2022-10-31T03:52:26;11.60;2.60
843;DHT22;407;48.884;9.126;2022-10-31T03:54:56;11.60;26.70
843;DHT22;407;48.884;9.126;2022-10-31T03:58:26;11.70;48.60
843;DHT22;407;48.884;9.126;2022-10-31T04:00:20;11.70;28.70
843;DHT22;407;48.884;9.126;2022-10-31T04:05:20;11.70;1.00
843;DHT22;407;48.884;9.126;2022-10-31T04:07:47;11.60;1.00
843;DHT22;407;48.884;9.126;2022-10-31T04:10:15;11.60;1.00
843;DHT22;407;48.884;9.126;2022-10-31T04:12:44;11.50;1.00
843;DHT22;407;48.884;9.126;2022-10-31T04:15:12;11.50;1.00
843;DHT22;407;48.884;9.126;2022-10-31T04:17:40;11.60;1.00
843;DHT22;407;48.884;9.126;2022-10-31T04:20:07;11.50;1.00
843;DHT22;407;48.884;9.126;2022-10-31T04:22:33;11.60;1.00
843;DHT22;407;48.884;9.126;2022-10-31T04:24:59;11.60;1.00
843;DHT22;407;48.884;9.126;2022-10-31T04:27:24;11.50;1.00
843;DHT22;407;48.884;9.126;2022-10-31T04:29:50;11.50;1.00
843;DHT22;407;48.884;9.126;2022-10-31T04:32:15;11.50;1.00
843;DHT22;407;48.884;9.126;2022-10-31T04:34:41;11.50;1.00
843;DHT22;407;48.884;9.126;2022-10-31T04:37:07;11.30;1.00
843;DHT22;407;48.884;9.126;2022-10-31T04:39:32;11.30;1.00
843;DHT22;407;48.884;9.126;2022-10-31T04:41:58;11.30;1.00
843;DHT22;407;48.884;9.126;2022-10-31T04:44:23;11.20;1.00
843;DHT22;407;48.884;9.126;2022-10-31T04:46:49;11.20;1.00
843;DHT22;407;48.884;9.126;2022-10-31T04:49:14;11.20;1.00
843;DHT22;407;48.884;9.126;2022-10-31T04:51:40;11.20;1.00
843;DHT22;407;48.884;9.126;2022-10-31T04:54:06;11.10;1.00
843;DHT22;407;48.884;9.126;2022-10-31T04:56:31;11.10;1.00
843;DHT22;407;48.884;9.126;2022-10-31T04:58:57;11.20;14.80
843;DHT22;407;48.884;9.126;2022-10-31T05:01:22;11.30;8.80
843;DHT22;407;48.884;9.126;2022-10-31T05:03:48;11.20;6.50
843;DHT22;407;48.884;9.126;2022-10-31T05:06:13;11.30;1.00
843;DHT22;407;48.884;9.126;2022-10-31T05:08:39;11.30;1.00
843;DHT22;407;48.884;9.126;2022-10-31T05:11:05;11.30;1.00
843;DHT22;407;48.884;9.126;2022-10-31T05:13:31;11.10;1.00
843;DHT22;407;48.884;9.126;2022-10-31T05:15:56;11.10;1.00
843;DHT22;407;48.884;9.126;2022-10-31T05:18:22;11.10;1.00
843;DHT22;407;48.884;9.126;2022-10-31T05:20:48;11.10;1.00
843;DHT22;407;48.884;9.126;2022-10-31T05:23:14;11.10;1.00
843;DHT22;407;48.884;9.126;2022-10-31T05:25:40;11.10;1.00
843;DHT22;407;48.884;9.126;2022-10-31T05:28:05;11.00;1.00
843;DHT22;407;48.884;9.126;2022-10-31T05:30:32;11.00;1.00
843;DHT22;407;48.884;9.126;2022-10-31T05:32:58;10.90;12.70
843;DHT22;407;48.884;9.126;2022-10-31T05:35:27;11.00;27.80
843;DHT22;407;48.884;9.126;2022-10-31T05:37:53;11.00;5.90
843;DHT22;407;48.884;9.126;2022-10-31T05:40:19;11.10;2.90
843;DHT22;407;48.884;9.126;2022-10-31T05:42:46;11.10;1.00
843;DHT22;407;48.884;9.126;2022-10-31T05:45:14;11.00;1.00
843;DHT22;407;48.884;9.126;2022-10-31T05:47:40;11.00;1.00
843;DHT22;407;48.884;9.126;2022-10-31T05:50:07;10.90;1.00
843;DHT22;407;48.884;9.126;2022-10-31T05:52:32;10.90;1.00
843;DHT22;407;48.884;9.126;2022-10-31T05:54:58;10.90;1.00
843;DHT22;407;48.884;9.126;2022-10-31T05:57:24;11.00;1.00
843;DHT22;407;48.884;9.126;2022-10-31T05:59:50;11.00;1.00
843;DHT22;407;48.884;9.126;2022-10-31T06:02:18;11.00;1.00
843;DHT22;407;48.884;9.126;2022-10-31T06:04:44;11.00;1.00
843;DHT22;407;48.884;9.126;2022-10-31T06:07:09;11.10;1.00
843;DHT22;407;48.884;9.126;2022-10-31T06:09:35;11.00;1.00
843;DHT22;407;48.884;9.126;2022-10-31T06:12:01;11.00;1.00
843;DHT22;407;48.884;9.126;2022-10-31T06:14:26;10.80;1.00
843;DHT22;407;48.884;9.126;2022-10-31T06:16:54;10.90;1.00
843;DHT22;407;48.884;9.126;2022-10-31T06:19:19;10.90;1.00
843;DHT22;407;48.884;9.126;2022-10-31T06:21:45;11.00;31.80
843;DHT22;407;48.884;9.126;2022-10-31T06:24:11;11.20;19.60
843;DHT22;407;48.884;9.126;2022-10-31T06:26:36;11.30;1.00
843;DHT22;407;48.884;9.126;2022-10-31T06:29:02;11.30;1.00
843;DHT22;407;48.884;9.126;2022-10-31T06:31:28;11.30;1.00
843;DHT22;407;48.884;9.126;2022-10-31T06:33:53;11.30;1.00
843;DHT22;407;48.884;9.126;2022-10-31T06:36:19;11.30;1.00
843;DHT22;407;48.884;9.126;2022-10-31T06:38:45;11.40;1.00
843;DHT22;407;48.884;9.126;2022-10-31T06:41:10;11.40;1.00
843;DHT22;407;48.884;9.126;2022-10-31T06:43:36;11.40;1.00
843;DHT22;407;48.884;9.126;2022-10-31T06:46:03;11.40;1.00
843;DHT22;407;48.884;9.126;2022-10-31T06:48:28;11.50;1.00
843;DHT22;407;48.884;9.126;2022-10-31T06:50:58;11.60;1.00
843;DHT22;407;48.884;9.126;2022-10-31T06:53:24;11.70;1.00
843;DHT22;407;48.884;9.126;2022-10-31T06:55:49;11.90;1.00
843;DHT22;407;48.884;9.126;2022-10-31T06:58:15;11.90;1.00
843;DHT22;407;48.884;9.126;2022-10-31T07:00:40;12.10;1.00
843;DHT22;407;48.884;9.126;2022-10-31T07:03:10;12.10;1.00
843;DHT22;407;48.884;9.126;2022-10-31T07:05:36;12.30;1.00
843;DHT22;407;48.884;9.126;2022-10-31T07:08:06;12.40;1.00
843;DHT22;407;48.884;9.126;2022-10-31T07:10:35;12.80;1.00
843;DHT22;407;48.884;9.126;2022-10-31T07:13:03;13.20;1.00
843;DHT22;407;48.884;9.126;2022-10-31T07:15:32;13.90;99.90
843;DHT22;407;48.884;9.126;2022-10-31T07:18:03;14.80;1.00
843;DHT22;407;48.884;9.126;2022-10-31T07:20:29;15.50;99.90
843;DHT22;407;48.884;9.126;2022-10-31T07:22:55;16.20;99.90
843;DHT22;407;48.884;9.126;2022-10-31T07:25:21;16.80;99.90
843;DHT22;407;48.884;9.126;2022-10-31T07:27:47;17.10;1.00
843;DHT22;407;48.884;9.126;2022-10-31T07:30:13;17.20;99.90
843;DHT22;407;48.884;9.126;2022-10-31T07:32:40;17.20;99.90
843;DHT22;407;48.884;9.126;2022-10-31T07:35:10;17.60;99.90
843;DHT22;407;48.884;9.126;2022-10-31T07:37:37;17.70;94.40
843;DHT22;407;48.884;9.126;2022-10-31T07:40:04;18.00;1.00
843;DHT22;407;48.884;9.126;2022-10-31T07:42:38;17.90;1.00
843;DHT22;407;48.884;9.126;2022-10-31T07:45:05;18.20;1.00
843;DHT22;407;48.884;9.126;2022-10-31T07:47:41;18.30;1.00
843;DHT22;407;48.884;9.126;2022-10-31T07:50:09;18.30;1.00
843;DHT22;407;48.884;9.126;2022-10-31T07:52:35;18.40;1.00
843;DHT22;407;48.884;9.126;2022-10-31T07:55:00;18.30;1.00
843;DHT22;407;48.884;9.126;2022-10-31T07:57:26;18.30;1.00
843;DHT22;407;48.884;9.126;2022-10-31T07:59:51;18.30;1.00
843;DHT22;407;48.884;9.126;2022-10-31T08:02:17;18.10;1.00
843;DHT22;407;48.884;9.126;2022-10-31T08:04:43;18.30;1.00
843;DHT22;407;48.884;9.126;2022-10-31T08:07:08;18.60;1.00
843;DHT22;407;48.884;9.126;2022-10-31T08:09:34;19.10;1.00
843;DHT22;407;48.884;9.126;2022-10-31T08:12:00;19.40;1.00
843;DHT22;407;48.884;9.126;2022-10-31T08:14:26;19.60;1.00
843;DHT22;407;48.884;9.126;2022-10-31T08:16:53;19.80;1.00
843;DHT22;407;48.884;9.126;2022-10-31T08:19:18;19.90;1.00
843;DHT22;407;48.884;9.126;2022-10-31T08:21:44;19.80;1.00
843;DHT22;407;48.884;9.126;2022-10-31T08:24:10;19.40;1.00
843;DHT22;407;48.884;9.126;2022-10-31T08:26:35;19.20;1.00
843;DHT22;407;48.884;9.126;2022-10-31T08:29:01;19.20;1.00
843;DHT22;407;48.884;9.126;2022-10-31T08:31:27;19.20;1.00
843;DHT22;407;48.884;9.126;2022-10-31T08:33:53;19.30;1.00
843;DHT22;407;48.884;9.126;2022-10-31T08:36:19;20.00;1.00
843;DHT22;407;48.884;9.126;2022-10-31T08:38:46;20.30;1.00
843;DHT22;407;48.884;9.126;2022-10-31T08:41:12;20.30;1.00
843;DHT22;407;48.884;9.126;2022-10-31T08:43:38;20.30;1.00
843;DHT22;407;48.884;9.126;2022-10-31T08:46:04;20.40;1.00
843;DHT22;407;48.884;9.126;2022-10-31T08:48:29;20.30;1.00
843;DHT22;407;48.884;9.126;2022-10-31T08:50:59;20.00;1.00
843;DHT22;407;48.884;9.126;2022-10-31T08:53:25;19.70;1.00
843;DHT22;407;48.884;9.126;2022-10-31T08:55:54;19.40;1.00
843;DHT22;407;48.884;9.126;2022-10-31T08:58:20;18.80;1.00
843;DHT22;407;48.884;9.126;2022-10-31T09:00:48;18.60;1.00
843;DHT22;407;48.884;9.126;2022-10-31T09:03:24;18.30;1.00
843;DHT22;407;48.884;9.126;2022-10-31T09:05:50;18.00;1.00
843;DHT22;407;48.884;9.126;2022-10-31T09:08:16;17.70;1.00
843;DHT22;407;48.884;9.126;2022-10-31T09:10:42;17.70;1.00
843;DHT22;407;48.884;9.126;2022-10-31T09:13:10;17.80;1.00
843;DHT22;407;48.884;9.126;2022-10-31T09:15:38;17.80;1.00
843;DHT22;407;48.884;9.126;2022-10-31T09:18:08;17.80;1.00
843;DHT22;407;48.884;9.126;2022-10-31T09:20:36;18.30;1.00
843;DHT22;407;48.884;9.126;2022-10-31T09:23:05;18.60;1.00
843;DHT22;407;48.884;9.126;2022-10-31T09:25:32;19.00;1.00
843;DHT22;407;48.884;9.126;2022-10-31T09:28:00;19.40;1.00
843;DHT22;407;48.884;9.126;2022-10-31T09:30:28;19.50;1.00
843;DHT22;407;48.884;9.126;2022-10-31T09:32:58;19.80;1.00
843;DHT22;407;48.884;9.126;2022-10-31T09:35:24;20.00;1.00
843;DHT22;407;48.884;9.126;2022-10-31T09:38:04;20.20;1.00
843;DHT22;407;48.884;9.126;2022-10-31T09:40:35;20.20;1.00
843;DHT22;407;48.884;9.126;2022-10-31T09:51:20;20.80;1.00
843;DHT22;407;48.884;9.126;2022-10-31T09:54:14;21.00;99.90
843;DHT22;407;48.884;9.126;2022-10-31T09:56:40;21.50;99.90
843;DHT22;407;48.884;9.126;2022-10-31T09:59:34;21.30;99.90
843;DHT22;407;48.884;9.126;2022-10-31T10:02:21;21.50;99.90
843;DHT22;407;48.884;9.126;2022-10-31T10:04:56;21.50;99.90
843;DHT22;407;48.884;9.126;2022-10-31T10:10:00;20.30;99.90
843;DHT22;407;48.884;9.126;2022-10-31T10:13:00;19.80;99.90
843;DHT22;407;48.884;9.126;2022-10-31T10:18:01;19.60;99.90
843;DHT22;407;48.884;9.126;2022-10-31T10:25:33;19.90;99.90
843;DHT22;407;48.884;9.126;2022-10-31T10:33:19;19.70;99.90
843;DHT22;407;48.884;9.126;2022-10-31T10:35:52;19.40;99.90
843;DHT22;407;48.884;9.126;2022-10-31T10:38:28;19.50;1.00
843;DHT22;407;48.884;9.126;2022-10-31T10:40:55;19.60;99.90
843;DHT22;407;48.884;9.126;2022-10-31T10:43:31;19.90;99.90
843;DHT22;407;48.884;9.126;2022-10-31T10:46:17;20.30;99.90
843;DHT22;407;48.884;9.126;2022-10-31T10:49:17;20.20;99.90
843;DHT22;407;48.884;9.126;2022-10-31T10:51:44;20.20;99.90
843;DHT22;407;48.884;9.126;2022-10-31T10:57:08;19.70;99.90
843;DHT22;407;48.884;9.126;2022-10-31T10:59:37;19.60;99.90
843;DHT22;407;48.884;9.126;2022-10-31T11:02:03;19.50;1.00
843;DHT22;407;48.884;9.126;2022-10-31T11:04:40;19.60;1.00
843;DHT22;407;48.884;9.126;2022-10-31T11:07:08;19.50;1.00
843;DHT22;407;48.884;9.126;2022-10-31T11:09:35;19.40;1.00
843;DHT22;407;48.884;9.126;2022-10-31T11:14:43;19.30;1.00
843;DHT22;407;48.884;9.126;2022-10-31T11:17:17;19.10;1.00
843;DHT22;407;48.884;9.126;2022-10-31T11:19:43;19.20;1.00
843;DHT22;407;48.884;9.126;2022-10-31T11:22:16;19.20;1.00
843;DHT22;407;48.884;9.126;2022-10-31T11:24:42;19.50;1.00
843;DHT22;407;48.884;9.126;2022-10-31T11:27:16;19.80;1.00
843;DHT22;407;48.884;9.126;2022-10-31T11:29:45;20.00;1.00
843;DHT22;407;48.884;9.126;2022-10-31T11:32:22;20.20;1.00
843;DHT22;407;48.884;9.126;2022-10-31T11:34:52;20.10;1.00
843;DHT22;407;48.884;9.126;2022-10-31T11:37:25;19.80;1.00
843;DHT22;407;48.884;9.126;2022-10-31T11:39:54;19.70;1.00
843;DHT22;407;48.884;9.126;2022-10-31T11:42:35;19.70;1.00
843;DHT22;407;48.884;9.126;2022-10-31T11:45:12;19.70;1.00
843;DHT22;407;48.884;9.126;2022-10-31T11:47:42;19.70;1.00
843;DHT22;407;48.884;9.126;2022-10-31T11:50:11;19.50;1.00
843;DHT22;407;48.884;9.126;2022-10-31T11:52:38;19.40;1.00
843;DHT22;407;48.884;9.126;2022-10-31T11:55:15;19.50;1.00
843;DHT22;407;48.884;9.126;2022-10-31T11:57:49;19.60;1.00
843;DHT22;407;48.884;9.126;2022-10-31T12:00:28;19.80;1.00
843;DHT22;407;48.884;9.126;2022-10-31T12:06:14;19.80;1.00
843;DHT22;407;48.884;9.126;2022-10-31T12:08:43;19.80;1.00
843;DHT22;407;48.884;9.126;2022-10-31T12:14:16;19.90;1.00
843;DHT22;407;48.884;9.126;2022-10-31T12:17:02;19.90;99.90
843;DHT22;407;48.884;9.126;2022-10-31T12:28:43;20.10;99.90
843;DHT22;407;48.884;9.126;2022-10-31T12:30:49;20.30;99.90
843;DHT22;407;48.884;9.126;2022-10-31T12:38:46;20.60;99.90
843;DHT22;407;48.884;9.126;2022-10-31T12:44:14;20.60;99.90
843;DHT22;407;48.884;9.126;2022-10-31T12:50:19;20.70;99.90
843;DHT22;407;48.884;9.126;2022-10-31T12:55:58;20.60;99.90
843;DHT22;407;48.884;9.126;2022-10-31T12:58:43;20.50;99.90
843;DHT22;407;48.884;9.126;2022-10-31T13:01:18;20.30;99.90
843;DHT22;407;48.884;9.126;2022-10-31T13:03:55;20.10;99.90
843;DHT22;407;48.884;9.126;2022-10-31T13:06:32;20.10;99.90
843;DHT22;407;48.884;9.126;2022-10-31T13:09:08;20.00;99.90
843;DHT22;407;48.884;9.126;2022-10-31T13:11:40;20.10;99.90
843;DHT22;407;48.884;9.126;2022-10-31T13:16:45;19.90;99.90
843;DHT22;407;48.884;9.126;2022-10-31T13:19:22;19.90;99.90
843;DHT22;407;48.884;9.126;2022-10-31T13:27:51;20.10;99.90
843;DHT22;407;48.884;9.126;2022-10-31T13:30:20;20.10;99.90
843;DHT22;407;48.884;9.126;2022-10-31T13:35:25;20.10;99.90
843;DHT22;407;48.884;9.126;2022-10-31T13:41:05;20.10;99.90
843;DHT22;407;48.884;9.126;2022-10-31T13:46:36;20.20;99.90
843;DHT22;407;48.884;9.126;2022-10-31T13:49:03;20.60;99.90
843;DHT22;407;48.884;9.126;2022-10-31T13:51:31;20.90;99.90
843;DHT22;407;48.884;9.126;2022-10-31T13:54:01;21.10;99.90
843;DHT22;407;48.884;9.126;2022-10-31T13:56:33;21.20;99.90
843;DHT22;407;48.884;9.126;2022-10-31T13:59:20;21.10;99.90
843;DHT22;407;48.884;9.126;2022-10-31T14:01:49;21.30;99.90
843;DHT22;407;48.884;9.126;2022-10-31T14:04:21;21.50;99.90
843;DHT22;407;48.884;9.126;2022-10-31T14:07:07;21.20;99.90
843;DHT22;407;48.884;9.126;2022-10-31T14:10:01;20.90;99.90
843;DHT22;407;48.884;9.126;2022-10-31T14:12:35;20.60;99.90
843;DHT22;407;48.884;9.126;2022-10-31T14:15:18;20.40;99.90
843;DHT22;407;48.884;9.126;2022-10-31T14:18:21;20.30;99.90
843;DHT22;407;48.884;9.126;2022-10-31T14:20:47;20.10;99.90
843;DHT22;407;48.884;9.126;2022-10-31T14:25:53;19.90;99.90
843;DHT22;407;48.884;9.126;2022-10-31T14:28:34;19.90;1.00
843;DHT22;407;48.884;9.126;2022-10-31T14:31:00;19.80;1.00
843;DHT22;407;48.884;9.126;2022-10-31T14:33:30;19.90;1.00
843;DHT22;407;48.884;9.126;2022-10-31T14:36:10;19.70;1.00
843;DHT22;407;48.884;9.126;2022-10-31T14:39:12;19.50;1.00
843;DHT22;407;48.884;9.126;2022-10-31T14:47:02;19.10;1.00
843;DHT22;407;48.884;9.126;2022-10-31T14:52:07;19.20;1.00
843;DHT22;407;48.884;9.126;2022-10-31T14:54:39;19.20;1.00
843;DHT22;407;48.884;9.126;2022-10-31T14:57:22;19.20;1.00
843;DHT22;407;48.884;9.126;2022-10-31T14:59:52;19.20;1.00
843;DHT22;407;48.884;9.126;2022-10-31T15:02:34;19.20;1.00
843;DHT22;407;48.884;9.126;2022-10-31T15:05:10;19.20;1.00
843;DHT22;407;48.884;9.126;2022-10-31T15:07:36;19.10;1.00
843;DHT22;407;48.884;9.126;2022-10-31T15:10:18;19.00;1.00
843;DHT22;407;48.884;9.126;2022-10-31T15:12:44;19.00;1.00
843;DHT22;407;48.884;9.126;2022-10-31T15:15:24;18.90;1.00
843;DHT22;407;48.884;9.126;2022-10-31T15:18:00;18.90;1.00
843;DHT22;407;48.884;9.126;2022-10-31T15:20:33;18.80;1.00
843;DHT22;407;48.884;9.126;2022-10-31T15:23:01;18.70;99.90
843;DHT22;407;48.884;9.126;2022-10-31T15:25:32;18.60;99.90
843;DHT22;407;48.884;9.126;2022-10-31T15:27:58;18.50;1.00
843;DHT22;407;48.884;9.126;2022-10-31T15:30:29;18.30;29.00
843;DHT22;407;48.884;9.126;2022-10-31T15:32:54;18.20;99.90
843;DHT22;407;48.884;9.126;2022-10-31T15:35:25;18.10;1.00
843;DHT22;407;48.884;9.126;2022-10-31T15:37:52;18.00;12.30
843;DHT22;407;48.884;9.126;2022-10-31T15:40:21;17.90;21.10
843;DHT22;407;48.884;9.126;2022-10-31T15:43:00;17.80;85.00
843;DHT22;407;48.884;9.126;2022-10-31T15:45:28;17.60;1.00
843;DHT22;407;48.884;9.126;2022-10-31T15:48:03;17.50;99.90
843;DHT22;407;48.884;9.126;2022-10-31T15:50:41;17.50;99.90
843;DHT22;407;48.884;9.126;2022-10-31T15:53:17;17.40;99.90
843;DHT22;407;48.884;9.126;2022-10-31T15:56:12;17.20;4.90
843;DHT22;407;48.884;9.126;2022-10-31T15:58:44;17.10;1.00
843;DHT22;407;48.884;9.126;2022-10-31T16:01:31;17.00;1.00
843;DHT22;407;48.884;9.126;2022-10-31T16:04:23;16.90;1.00
843;DHT22;407;48.884;9.126;2022-10-31T16:07:21;16.70;99.90
843;DHT22;407;48.884;9.126;2022-10-31T16:09:56;16.70;1.00
843;DHT22;407;48.884;9.126;2022-10-31T16:12:23;16.70;1.00
843;DHT22;407;48.884;9.126;2022-10-31T16:14:54;16.90;99.90
843;DHT22;407;48.884;9.126;2022-10-31T16:17:22;17.00;1.00
843;DHT22;407;48.884;9.126;2022-10-31T16:20:01;17.00;99.90
843;DHT22;407;48.884;9.126;2022-10-31T16:22:30;16.90;4.80
843;DHT22;407;48.884;9.126;2022-10-31T16:24:59;16.70;1.00
843;DHT22;407;48.884;9.126;2022-10-31T16:27:28;16.60;99.90
843;DHT22;407;48.884;9.126;2022-10-31T16:29:59;16.50;99.90
843;DHT22;407;48.884;9.126;2022-10-31T16:32:37;16.40;1.00
843;DHT22;407;48.884;9.126;2022-10-31T16:35:21;16.40;99.90
843;DHT22;407;48.884;9.126;2022-10-31T16:37:48;16.40;99.90
843;DHT22;407;48.884;9.126;2022-10-31T16:40:14;16.40;1.00
843;DHT22;407;48.884;9.126;2022-10-31T16:42:41;16.30;1.00
843;DHT22;407;48.884;9.126;2022-10-31T16:45:08;16.10;42.20
843;DHT22;407;48.884;9.126;2022-10-31T16:47:38;15.80;99.90
843;DHT22;407;48.884;9.126;2022-10-31T16:50:10;15.70;1.00
843;DHT22;407;48.884;9.126;2022-10-31T16:52:37;15.60;1.00
843;DHT22;407;48.884;9.126;2022-10-31T16:55:02;15.60;74.80
843;DHT22;407;48.884;9.126;2022-10-31T16:57:29;15.60;9.50
843;DHT22;407;48.884;9.126;2022-10-31T16:59:56;15.50;1.00
843;DHT22;407;48.884;9.126;2022-10-31T17:02:22;15.40;44.40
843;DHT22;407;48.884;9.126;2022-10-31T17:04:48;15.40;70.20
843;DHT22;407;48.884;9.126;2022-10-31T17:07:14;15.40;22.20
843;DHT22;407;48.884;9.126;2022-10-31T17:09:39;15.40;1.00
843;DHT22;407;48.884;9.126;2022-10-31T17:12:09;15.40;1.00
843;DHT22;407;48.884;9.126;2022-10-31T17:14:39;15.40;1.00
843;DHT22;407;48.884;9.126;2022-10-31T17:17:04;15.30;88.00
843;DHT22;407;48.884;9.126;2022-10-31T17:19:30;15.30;99.90
843;DHT22;407;48.884;9.126;2022-10-31T17:21:55;15.30;99.90
843;DHT22;407;48.884;9.126;2022-10-31T17:24:21;15.30;99.90
843;DHT22;407;48.884;9.126;2022-10-31T17:26:47;15.40;99.90
843;DHT22;407;48.884;9.126;2022-10-31T17:29:12;15.40;1.00
843;DHT22;407;48.884;9.126;2022-10-31T17:31:38;15.40;1.00
843;DHT22;407;48.884;9.126;2022-10-31T17:34:04;15.20;13.90
843;DHT22;407;48.884;9.126;2022-10-31T17:36:34;15.10;99.90
843;DHT22;407;48.884;9.126;2022-10-31T17:39:00;15.00;99.90
843;DHT22;407;48.884;9.126;2022-10-31T17:41:26;14.90;99.90
843;DHT22;407;48.884;9.126;2022-10-31T17:43:55;14.90;99.90
843;DHT22;407;48.884;9.126;2022-10-31T17:46:21;14.80;99.90
843;DHT22;407;48.884;9.126;2022-10-31T17:48:47;14.80;99.90
843;DHT22;407;48.884;9.126;2022-10-31T17:51:12;14.80;99.90
843;DHT22;407;48.884;9.126;2022-10-31T17:53:38;14.70;99.90
843;DHT22;407;48.884;9.126;2022-10-31T17:56:06;14.70;99.90
843;DHT22;407;48.884;9.126;2022-10-31T17:58:34;14.70;99.90
843;DHT22;407;48.884;9.126;2022-10-31T18:00:59;14.70;99.90
843;DHT22;407;48.884;9.126;2022-10-31T18:03:26;14.80;99.90
843;DHT22;407;48.884;9.126;2022-10-31T18:05:56;14.90;99.90
843;DHT22;407;48.884;9.126;2022-10-31T18:08:26;14.90;99.90
843;DHT22;407;48.884;9.126;2022-10-31T18:10:52;14.80;99.90
843;DHT22;407;48.884;9.126;2022-10-31T18:13:18;14.70;99.90
843;DHT22;407;48.884;9.126;2022-10-31T18:15:44;14.40;99.90
843;DHT22;407;48.884;9.126;2022-10-31T18:18:10;14.40;99.90
843;DHT22;407;48.884;9.126;2022-10-31T18:20:35;14.40;1.00
843;DHT22;407;48.884;9.126;2022-10-31T18:23:01;14.30;1.00
843;DHT22;407;48.884;9.126;2022-10-31T18:25:26;14.40;1.00
843;DHT22;407;48.884;9.126;2022-10-31T18:27:52;14.30;1.00
843;DHT22;407;48.884;9.126;2022-10-31T18:30:18;14.10;1.00
843;DHT22;407;48.884;9.126;2022-10-31T18:32:43;14.10;1.00
843;DHT22;407;48.884;9.126;2022-10-31T18:35:09;14.20;1.00
843;DHT22;407;48.884;9.126;2022-10-31T18:37:35;14.20;1.00
843;DHT22;407;48.884;9.126;2022-10-31T18:40:00;14.20;1.00
843;DHT22;407;48.884;9.126;2022-10-31T18:42:26;14.20;1.00
843;DHT22;407;48.884;9.126;2022-10-31T18:44:51;14.20;1.00
843;DHT22;407;48.884;9.126;2022-10-31T18:47:17;14.20;1.00
843;DHT22;407;48.884;9.126;2022-10-31T18:49:43;14.20;1.00
843;DHT22;407;48.884;9.126;2022-10-31T18:52:09;14.20;1.00
843;DHT22;407;48.884;9.126;2022-10-31T18:54:35;14.30;1.00